Time;durP1;ratioP1;P1;durP2;ratioP2;P2;SDS_P1;SDS_P2;PMS_P1;PMS_P2;Temp;Humidity;BMP_temperature;BMP_pressure;BME280_temperature;BME280_humidity;BME280_pressure;Samples;Min_cycle;Max_cycle;Signal;HPM_P1;HPM_P2
2022/03/20 00:00:03;;;;;;;12.67;9.53;;;8.30;48.90;;;;;;962684;147;27751;-77
2022/03/20 00:02:32;;;;;;;12.60;9.90;;;8.30;48.80;;;;;;960817;146;27426;-77
2022/03/20 00:04:56;;;;;;;12.27;10.27;;;8.30;48.60;;;;;;963538;147;27419;-78
2022/03/20 00:07:22;;;;;;;11.73;9.43;;;8.30;48.40;;;;;;961721;147;27344;-78
2022/03/20 00:09:52;;;;;;;13.07;10.00;;;8.30;48.40;;;;;;961812;147;27276;-78
2022/03/20 00:12:18;;;;;;;11.53;10.00;;;8.30;48.40;;;;;;961956;147;27368;-78
2022/03/20 00:14:45;;;;;;;13.20;9.90;;;8.30;48.30;;;;;;961210;146;27313;-78
2022/03/20 00:17:13;;;;;;;11.17;9.30;;;8.30;48.30;;;;;;961533;147;27372;-76
2022/03/20 00:19:39;;;;;;;13.57;10.40;;;8.30;48.30;;;;;;956426;147;27864;-78
2022/03/20 00:22:05;;;;;;;11.90;9.60;;;8.30;48.20;;;;;;949849;150;27316;-78
2022/03/20 00:24:32;;;;;;;12.43;10.37;;;8.30;48.20;;;;;;950705;150;27334;-77
2022/03/20 00:26:58;;;;;;;12.20;9.87;;;8.30;48.10;;;;;;950996;148;27378;-78
2022/03/20 00:29:25;;;;;;;12.87;10.63;;;8.30;48.00;;;;;;949227;149;27301;-77
2022/03/20 00:31:51;;;;;;;13.37;10.67;;;8.30;47.90;;;;;;949447;150;27372;-78
2022/03/20 00:34:18;;;;;;;11.83;10.60;;;8.30;47.80;;;;;;951824;148;27375;-77
2022/03/20 00:36:44;;;;;;;12.37;10.33;;;8.30;47.80;;;;;;951058;150;27286;-78
2022/03/20 00:39:11;;;;;;;14.17;11.13;;;8.30;47.90;;;;;;950693;150;27394;-77
2022/03/20 00:41:38;;;;;;;14.33;10.57;;;8.30;47.70;;;;;;950642;150;27891;-76
2022/03/20 00:44:04;;;;;;;14.97;11.50;;;8.30;47.60;;;;;;951138;150;27433;-78
2022/03/20 00:46:31;;;;;;;12.57;10.23;;;8.30;47.60;;;;;;951187;150;27322;-78
2022/03/20 00:48:57;;;;;;;13.80;10.83;;;8.30;47.60;;;;;;949075;150;27305;-78
2022/03/20 00:51:24;;;;;;;13.73;10.40;;;8.30;47.60;;;;;;950879;150;27831;-78
2022/03/20 00:53:51;;;;;;;12.90;10.60;;;8.30;47.60;;;;;;951827;150;27296;-76
2022/03/20 00:56:17;;;;;;;12.00;10.43;;;8.30;47.50;;;;;;948117;149;27376;-78
2022/03/20 00:58:46;;;;;;;12.73;10.03;;;8.20;47.50;;;;;;950295;150;27856;-78
2022/03/20 01:01:10;;;;;;;13.60;10.40;;;8.20;47.50;;;;;;949600;150;27286;-78
2022/03/20 01:03:38;;;;;;;12.10;9.83;;;8.20;47.50;;;;;;949064;148;27317;-77
2022/03/20 01:06:05;;;;;;;12.47;10.50;;;8.20;47.60;;;;;;952442;148;27382;-77
2022/03/20 01:08:30;;;;;;;12.10;9.80;;;8.20;47.60;;;;;;951659;150;27388;-76
2022/03/20 01:10:57;;;;;;;12.20;10.90;;;8.10;47.60;;;;;;949545;150;27372;-78
2022/03/20 01:13:23;;;;;;;11.80;10.37;;;8.10;47.50;;;;;;949135;150;27819;-78
2022/03/20 01:15:50;;;;;;;14.67;11.33;;;8.10;47.60;;;;;;950185;150;27308;-77
2022/03/20 01:18:16;;;;;;;12.97;11.17;;;8.10;47.60;;;;;;948991;150;27329;-77
2022/03/20 01:20:43;;;;;;;13.17;10.47;;;8.10;47.60;;;;;;956985;146;27379;-76
2022/03/20 01:23:10;;;;;;;13.90;10.73;;;8.10;47.70;;;;;;961998;146;27347;-77
2022/03/20 01:25:36;;;;;;;15.37;10.27;;;8.10;47.70;;;;;;963499;146;27305;-78
2022/03/20 01:28:03;;;;;;;12.97;10.87;;;8.10;47.70;;;;;;960815;146;27360;-77
2022/03/20 01:30:29;;;;;;;14.07;11.13;;;8.10;47.70;;;;;;962664;146;27375;-77
2022/03/20 01:32:56;;;;;;;11.47;10.13;;;8.10;47.70;;;;;;963900;146;27344;-76
2022/03/20 01:35:22;;;;;;;16.57;12.27;;;8.00;47.60;;;;;;962278;146;27340;-77
2022/03/20 01:37:50;;;;;;;15.93;12.60;;;8.00;47.70;;;;;;961728;146;27250;-78
2022/03/20 01:40:16;;;;;;;14.07;11.40;;;8.10;47.80;;;;;;960162;146;27774;-78
2022/03/20 01:42:43;;;;;;;15.13;10.73;;;8.10;47.80;;;;;;963174;146;27390;-78
2022/03/20 01:45:18;;;;;;;13.30;11.07;;;8.10;47.80;;;;;;964233;146;27872;-76
2022/03/20 01:47:47;;;;;;;12.40;11.10;;;8.10;47.90;;;;;;962728;146;27357;-78
2022/03/20 01:50:11;;;;;;;13.53;10.83;;;8.10;47.80;;;;;;963022;146;27346;-78
2022/03/20 01:52:38;;;;;;;14.73;10.83;;;8.10;47.80;;;;;;962550;146;27259;-78
2022/03/20 01:55:04;;;;;;;13.77;10.70;;;8.10;47.80;;;;;;962452;146;27246;-78
2022/03/20 01:57:36;;;;;;;13.03;10.57;;;8.10;47.70;;;;;;964266;146;27618;-77
2022/03/20 01:59:57;;;;;;;11.87;9.60;;;8.10;47.70;;;;;;958433;146;27755;-77
2022/03/20 02:02:24;;;;;;;13.23;11.57;;;8.10;47.70;;;;;;967420;146;27263;-78
2022/03/20 02:04:51;;;;;;;15.00;11.67;;;8.10;47.70;;;;;;962537;146;27782;-78
2022/03/20 02:07:18;;;;;;;16.67;12.97;;;8.00;47.70;;;;;;963284;146;27273;-78
2022/03/20 02:09:44;;;;;;;13.37;10.87;;;8.00;47.80;;;;;;964021;146;27446;-75
2022/03/20 02:12:11;;;;;;;13.53;11.47;;;8.00;47.80;;;;;;961827;146;27350;-77
2022/03/20 02:14:37;;;;;;;14.57;11.83;;;8.00;47.80;;;;;;963357;146;27337;-76
2022/03/20 02:17:04;;;;;;;16.83;11.30;;;8.00;47.90;;;;;;962767;146;27277;-77
2022/03/20 02:19:30;;;;;;;14.23;11.60;;;7.90;47.80;;;;;;961836;146;27292;-77
2022/03/20 02:21:57;;;;;;;14.43;10.93;;;7.90;47.90;;;;;;962551;146;27335;-78
2022/03/20 02:24:46;;;;;;;16.07;10.90;;;7.90;48.00;;;;;;960614;146;27411;-78
2022/03/20 02:27:12;;;;;;;15.00;12.47;;;7.90;47.90;;;;;;960391;147;27363;-78
2022/03/20 02:29:37;;;;;;;16.97;12.63;;;7.80;47.90;;;;;;962660;147;27710;-77
2022/03/20 02:32:05;;;;;;;15.40;11.33;;;7.80;48.00;;;;;;963292;147;27285;-78
2022/03/20 02:34:31;;;;;;;17.03;12.47;;;7.70;48.00;;;;;;961648;147;27374;-77
2022/03/20 02:36:57;;;;;;;17.10;11.87;;;7.70;48.10;;;;;;960529;147;27440;-78
2022/03/20 02:39:24;;;;;;;15.97;12.40;;;7.70;48.10;;;;;;963860;147;27315;-76
2022/03/20 02:41:54;;;;;;;15.43;11.70;;;7.70;48.20;;;;;;961824;147;27313;-78
2022/03/20 02:44:20;;;;;;;13.57;11.90;;;7.60;48.20;;;;;;962881;147;27260;-77
2022/03/20 02:46:46;;;;;;;15.83;11.93;;;7.60;48.30;;;;;;962513;147;27335;-78
2022/03/20 02:49:13;;;;;;;16.13;11.80;;;7.60;48.30;;;;;;963311;147;27781;-78
2022/03/20 02:51:39;;;;;;;16.13;12.07;;;7.60;48.40;;;;;;962678;147;27573;-77
2022/03/20 02:54:06;;;;;;;15.67;12.37;;;7.60;48.40;;;;;;963189;147;27269;-77
2022/03/20 02:56:33;;;;;;;16.87;12.67;;;7.60;48.50;;;;;;962460;146;27324;-77
2022/03/20 02:58:59;;;;;;;12.83;11.47;;;7.60;48.50;;;;;;961680;147;27336;-78
2022/03/20 03:01:26;;;;;;;16.17;12.07;;;7.60;48.60;;;;;;962652;147;27326;-78
2022/03/20 03:03:53;;;;;;;13.20;11.70;;;7.60;48.60;;;;;;963227;147;27361;-77
2022/03/20 03:06:19;;;;;;;16.33;12.53;;;7.60;48.70;;;;;;962519;147;27311;-78
2022/03/20 03:11:30;;;;;;;16.70;12.30;;;7.60;48.80;;;;;;963356;147;27431;-80
2022/03/20 03:15:18;;;;;;;15.97;12.50;;;7.60;48.80;;;;;;962461;146;27332;-80
2022/03/20 03:16:24;;;;;;;15.03;11.60;;;7.60;48.80;;;;;;963101;147;27448;-80
2022/03/20 03:18:50;;;;;;;17.20;12.23;;;7.60;48.90;;;;;;964342;147;27211;-80
2022/03/20 03:21:17;;;;;;;14.83;12.53;;;7.70;49.00;;;;;;964207;146;27353;-80
2022/03/20 03:23:43;;;;;;;14.00;12.30;;;7.70;48.90;;;;;;964213;146;27406;-80
2022/03/20 03:26:10;;;;;;;16.40;12.83;;;7.70;48.90;;;;;;963861;146;27823;-80
2022/03/20 03:28:37;;;;;;;17.43;13.37;;;7.70;49.00;;;;;;963340;146;27375;-79
2022/03/20 03:31:03;;;;;;;14.07;12.37;;;7.70;49.00;;;;;;961997;146;28604;-80
2022/03/20 03:33:30;;;;;;;16.10;12.97;;;7.80;49.00;;;;;;961886;146;27359;-80
2022/03/20 03:35:57;;;;;;;18.33;13.77;;;7.80;49.00;;;;;;960745;146;27422;-78
2022/03/20 03:38:38;;;;;;;17.73;12.87;;;7.80;49.00;;;;;;961470;146;27349;-80
2022/03/20 03:40:55;;;;;;;16.20;12.80;;;7.80;49.10;;;;;;962659;146;27285;-76
2022/03/20 03:43:22;;;;;;;18.93;13.77;;;7.80;49.10;;;;;;964034;146;27779;-75
2022/03/20 03:45:48;;;;;;;17.27;13.37;;;7.80;49.20;;;;;;966581;146;27342;-76
2022/03/20 03:48:16;;;;;;;16.77;14.13;;;7.80;49.10;;;;;;963726;146;27337;-75
2022/03/20 03:50:41;;;;;;;17.60;13.73;;;7.80;49.20;;;;;;963643;146;27328;-76
2022/03/20 03:53:11;;;;;;;18.13;13.37;;;7.90;49.30;;;;;;962920;146;27266;-76
2022/03/20 03:55:37;;;;;;;18.40;13.70;;;7.90;49.30;;;;;;963833;146;27264;-76
2022/03/20 03:58:04;;;;;;;18.63;13.47;;;7.90;49.40;;;;;;960822;146;27394;-76
2022/03/20 04:00:32;;;;;;;19.50;15.23;;;7.90;49.30;;;;;;961359;146;27333;-76
2022/03/20 04:02:57;;;;;;;17.93;14.40;;;7.90;49.30;;;;;;962695;146;27287;-76
2022/03/20 04:05:24;;;;;;;20.57;16.00;;;7.90;49.40;;;;;;961345;146;27255;-76
2022/03/20 04:07:50;;;;;;;19.53;14.87;;;8.00;49.40;;;;;;960276;146;27921;-76
2022/03/20 04:10:17;;;;;;;19.47;15.07;;;8.00;49.50;;;;;;965149;146;27324;-76
2022/03/20 04:12:44;;;;;;;18.13;14.27;;;8.00;49.60;;;;;;962733;146;27313;-76
2022/03/20 04:15:10;;;;;;;19.13;15.07;;;8.00;49.60;;;;;;961923;146;28336;-76
2022/03/20 04:17:37;;;;;;;20.20;15.53;;;8.10;49.60;;;;;;965091;146;27309;-76
2022/03/20 04:20:03;;;;;;;17.77;14.80;;;8.10;49.60;;;;;;960260;146;27370;-76
2022/03/20 04:22:30;;;;;;;19.73;15.53;;;8.10;49.60;;;;;;963652;146;27417;-76
2022/03/20 04:24:56;;;;;;;20.43;15.43;;;8.20;49.60;;;;;;963812;147;27307;-76
2022/03/20 04:27:24;;;;;;;19.00;15.70;;;8.20;49.50;;;;;;962242;147;27963;-76
2022/03/20 04:29:50;;;;;;;18.53;15.30;;;8.20;49.60;;;;;;963710;147;27263;-77
2022/03/20 04:32:16;;;;;;;19.10;15.57;;;8.20;49.60;;;;;;961850;146;27413;-76
2022/03/20 04:34:43;;;;;;;21.17;16.30;;;8.30;49.60;;;;;;961106;147;27736;-76
2022/03/20 04:37:10;;;;;;;19.07;15.90;;;8.20;49.60;;;;;;960648;147;27434;-76
2022/03/20 04:39:36;;;;;;;20.67;16.23;;;8.30;49.70;;;;;;962516;147;27348;-76
2022/03/20 04:42:03;;;;;;;19.77;16.00;;;8.30;49.60;;;;;;960904;147;27407;-76
2022/03/20 04:44:29;;;;;;;22.00;17.30;;;8.30;49.80;;;;;;963010;147;27328;-76
2022/03/20 04:46:56;;;;;;;21.77;17.93;;;8.30;49.90;;;;;;961534;146;27392;-77
2022/03/20 05:00:03;;;;;;;20.30;16.23;;;8.40;49.80;;;;;;963429;147;27357;-76
2022/03/20 05:02:30;;;;;;;20.77;16.50;;;8.50;49.90;;;;;;961450;146;27293;-76
2022/03/20 05:04:57;;;;;;;20.47;16.03;;;8.50;49.80;;;;;;963262;146;27380;-76
2022/03/20 05:07:23;;;;;;;19.97;16.00;;;8.40;49.80;;;;;;961976;146;27262;-76
2022/03/20 05:15:19;;;;;;;23.27;17.17;;;8.50;49.80;;;;;;962680;147;27260;-76
2022/03/20 05:17:46;;;;;;;20.47;16.67;;;8.50;49.90;;;;;;961783;146;27239;-76
2022/03/20 05:20:12;;;;;;;22.27;17.13;;;8.50;49.90;;;;;;961790;147;27911;-76
2022/03/20 05:22:39;;;;;;;19.33;15.60;;;8.50;50.00;;;;;;964966;146;27222;-76
2022/03/20 05:25:06;;;;;;;21.33;16.00;;;8.50;49.90;;;;;;967770;146;27731;-76
2022/03/20 05:27:32;;;;;;;20.23;16.73;;;8.50;50.00;;;;;;969512;146;27928;-76
2022/03/20 05:29:59;;;;;;;22.83;17.67;;;8.60;50.10;;;;;;970171;146;27338;-76
2022/03/20 05:32:25;;;;;;;24.30;17.00;;;8.60;50.10;;;;;;970161;146;27432;-76
2022/03/20 05:34:52;;;;;;;21.67;17.43;;;8.60;50.10;;;;;;970532;146;27699;-76
2022/03/20 05:37:19;;;;;;;20.63;17.67;;;8.60;50.10;;;;;;969195;146;27355;-76
2022/03/20 05:39:46;;;;;;;20.50;16.63;;;8.60;50.10;;;;;;970007;146;27307;-77
2022/03/20 05:42:14;;;;;;;21.63;17.03;;;8.60;50.10;;;;;;970551;146;27295;-76
2022/03/20 05:44:38;;;;;;;22.17;17.67;;;8.70;50.20;;;;;;968115;146;27402;-76
2022/03/20 05:47:05;;;;;;;20.43;17.03;;;8.70;50.20;;;;;;967012;146;27275;-76
2022/03/20 05:49:32;;;;;;;20.37;17.07;;;8.70;50.20;;;;;;970629;146;27390;-76
2022/03/20 05:51:59;;;;;;;20.00;16.57;;;8.70;50.20;;;;;;968165;146;27251;-76
2022/03/20 05:54:25;;;;;;;19.87;17.40;;;8.80;50.20;;;;;;968074;146;27368;-76
2022/03/20 05:59:36;;;;;;;24.17;17.73;;;8.90;50.30;;;;;;969956;146;27472;-77
2022/03/20 06:02:03;;;;;;;24.87;16.30;;;9.00;50.30;;;;;;968566;146;27292;-76
2022/03/20 06:04:31;;;;;;;20.07;17.43;;;9.00;50.40;;;;;;967612;146;27922;-76
2022/03/20 06:06:58;;;;;;;20.37;17.23;;;9.10;50.40;;;;;;969360;146;27364;-76
2022/03/20 06:09:22;;;;;;;19.47;16.97;;;9.20;50.40;;;;;;968695;146;27378;-76
2022/03/20 06:11:49;;;;;;;20.47;17.83;;;9.30;50.20;;;;;;967997;146;28740;-76
2022/03/20 06:14:17;;;;;;;22.27;17.57;;;9.30;50.10;;;;;;968990;146;27256;-77
2022/03/20 06:16:43;;;;;;;21.53;18.33;;;9.30;50.00;;;;;;968402;146;27397;-76
2022/03/20 06:19:09;;;;;;;22.83;19.50;;;9.30;50.00;;;;;;967578;146;27207;-76
2022/03/20 06:21:35;;;;;;;22.80;19.17;;;9.40;50.10;;;;;;968141;146;27359;-77
2022/03/20 06:24:03;;;;;;;21.77;17.87;;;9.40;50.00;;;;;;965377;146;27372;-76
2022/03/20 06:26:28;;;;;;;21.10;17.47;;;9.40;50.00;;;;;;962438;146;27335;-76
2022/03/20 06:28:55;;;;;;;19.53;17.23;;;9.40;50.00;;;;;;962769;146;27262;-77
2022/03/20 06:31:22;;;;;;;22.97;18.53;;;9.40;50.00;;;;;;964115;146;27290;-76
2022/03/20 06:33:48;;;;;;;20.87;17.97;;;9.50;50.10;;;;;;963114;146;27330;-76
2022/03/20 06:36:15;;;;;;;19.10;16.67;;;9.50;50.10;;;;;;963299;146;27347;-76
2022/03/20 06:38:41;;;;;;;21.63;17.40;;;9.50;50.10;;;;;;962912;146;27323;-76
2022/03/20 06:41:08;;;;;;;19.57;17.37;;;9.60;50.60;;;;;;961719;146;27403;-76
2022/03/20 06:43:38;;;;;;;21.77;17.70;;;9.70;50.10;;;;;;962645;146;27397;-76
2022/03/20 06:46:04;;;;;;;18.70;16.67;;;9.70;50.10;;;;;;962868;146;27832;-76
2022/03/20 06:48:31;;;;;;;21.17;17.83;;;9.80;50.10;;;;;;960308;146;27339;-76
2022/03/20 06:50:57;;;;;;;23.53;18.03;;;9.90;50.20;;;;;;963892;146;27404;-76
2022/03/20 06:53:24;;;;;;;20.87;17.30;;;10.00;50.10;;;;;;961971;146;27335;-77
2022/03/20 06:55:51;;;;;;;19.53;17.43;;;10.10;50.10;;;;;;964128;146;27286;-76
2022/03/20 06:58:17;;;;;;;21.60;17.00;;;10.10;50.00;;;;;;962392;146;27814;-76
2022/03/20 07:00:44;;;;;;;20.93;16.97;;;10.20;49.90;;;;;;962507;146;27335;-76
2022/03/20 07:03:10;;;;;;;21.23;17.57;;;10.20;49.90;;;;;;960965;146;27314;-76
2022/03/20 07:05:37;;;;;;;22.67;18.10;;;10.30;49.90;;;;;;962538;146;27354;-77
2022/03/20 07:08:03;;;;;;;23.37;18.33;;;10.40;49.90;;;;;;965207;146;27925;-76
2022/03/20 07:10:30;;;;;;;21.23;18.27;;;10.40;49.70;;;;;;963037;146;27457;-77
2022/03/20 07:15:41;;;;;;;21.50;17.93;;;10.70;49.90;;;;;;960283;146;27317;-77
2022/03/20 07:18:08;;;;;;;22.23;17.57;;;10.80;49.90;;;;;;963715;146;27289;-77
2022/03/20 07:20:34;;;;;;;21.63;18.40;;;11.00;49.90;;;;;;963022;146;27368;-76
2022/03/20 07:23:01;;;;;;;23.43;18.40;;;11.10;49.90;;;;;;965818;146;27340;-76
2022/03/20 07:30:57;;;;;;;19.03;15.77;;;11.70;49.60;;;;;;962107;147;27273;-75
2022/03/20 07:33:25;;;;;;;19.40;17.03;;;11.90;49.50;;;;;;962720;146;27292;-74
2022/03/20 07:35:50;;;;;;;18.83;16.00;;;12.10;49.30;;;;;;961833;146;27324;-74
2022/03/20 07:38:17;;;;;;;16.23;13.97;;;12.30;49.20;;;;;;961119;147;27403;-74
2022/03/20 07:40:43;;;;;;;22.10;17.23;;;12.50;49.10;;;;;;962803;147;27261;-74
2022/03/20 07:43:10;;;;;;;19.20;15.80;;;12.70;48.90;;;;;;963144;147;27286;-75
2022/03/20 07:45:37;;;;;;;19.53;16.07;;;13.00;48.90;;;;;;964146;147;27264;-75
2022/03/20 07:48:03;;;;;;;17.80;15.47;;;13.30;48.90;;;;;;963797;147;27277;-74
2022/03/20 07:50:30;;;;;;;18.13;16.20;;;13.70;49.20;;;;;;963006;147;27339;-74
2022/03/20 07:52:59;;;;;;;18.50;16.33;;;14.20;49.10;;;;;;960358;147;27352;-75
2022/03/20 07:55:28;;;;;;;17.52;15.72;;;14.60;48.40;;;;;;961923;147;27313;-75
2022/03/20 07:57:52;;;;;;;17.20;15.40;;;15.00;47.90;;;;;;962947;147;27235;-75
2022/03/20 08:00:19;;;;;;;15.95;14.35;;;15.50;47.70;;;;;;961487;146;27343;-75
2022/03/20 08:02:45;;;;;;;16.17;14.50;;;16.00;47.30;;;;;;962435;147;27263;-75
2022/03/20 08:05:12;;;;;;;17.17;14.00;;;16.40;47.10;;;;;;962810;147;27355;-75
2022/03/20 08:07:38;;;;;;;16.20;14.50;;;16.90;46.70;;;;;;963420;146;27256;-75
2022/03/20 08:10:05;;;;;;;16.85;13.45;;;17.30;46.20;;;;;;961140;147;27365;-75
2022/03/20 08:12:32;;;;;;;17.10;15.40;;;17.80;45.70;;;;;;962195;147;27334;-75
2022/03/20 08:14:58;;;;;;;16.67;14.85;;;18.10;44.60;;;;;;964166;147;27422;-75
2022/03/20 08:17:25;;;;;;;17.00;14.58;;;18.40;44.00;;;;;;961804;147;27294;-75
2022/03/20 08:19:51;;;;;;;16.10;14.40;;;18.70;43.60;;;;;;964204;146;27295;-75
2022/03/20 08:22:18;;;;;;;17.15;15.35;;;18.90;43.10;;;;;;961463;147;27228;-76
2022/03/20 08:24:47;;;;;;;15.25;13.65;;;19.10;42.50;;;;;;966080;146;27376;-75
2022/03/20 08:27:11;;;;;;;16.37;14.70;;;19.30;42.50;;;;;;970015;146;27329;-76
2022/03/20 08:29:38;;;;;;;16.10;14.50;;;19.50;42.00;;;;;;969043;146;27335;-75
2022/03/20 08:32:06;;;;;;;15.85;14.15;;;19.80;41.60;;;;;;968114;146;27266;-76
2022/03/20 08:34:31;;;;;;;16.07;14.38;;;19.90;41.60;;;;;;968196;146;27742;-75
2022/03/20 08:36:58;;;;;;;16.10;14.40;;;20.10;41.20;;;;;;968814;146;27331;-76
2022/03/20 08:39:24;;;;;;;16.00;13.62;;;20.30;41.30;;;;;;967382;146;27915;-76
2022/03/20 08:41:52;;;;;;;16.65;15.05;;;20.50;42.00;;;;;;969683;146;27409;-76
2022/03/20 08:44:17;;;;;;;15.63;14.00;;;20.70;41.00;;;;;;968818;146;27332;-76
2022/03/20 08:46:44;;;;;;;16.15;14.53;;;21.00;40.80;;;;;;969304;146;27288;-76
2022/03/20 08:49:11;;;;;;;15.00;13.40;;;21.20;40.40;;;;;;969614;146;27348;-76
2022/03/20 08:51:39;;;;;;;16.12;14.35;;;21.50;40.50;;;;;;968493;146;27346;-76
2022/03/20 08:54:04;;;;;;;14.75;13.22;;;21.70;40.30;;;;;;969987;146;27855;-76
2022/03/20 08:56:30;;;;;;;14.90;13.32;;;22.00;39.70;;;;;;968554;146;27252;-76
2022/03/20 08:58:57;;;;;;;15.05;13.55;;;22.20;39.50;;;;;;969617;146;27340;-76
2022/03/20 09:01:24;;;;;;;15.48;13.98;;;22.40;39.00;;;;;;967487;146;27247;-76
2022/03/20 09:03:50;;;;;;;14.63;13.22;;;22.50;38.60;;;;;;969294;146;27252;-75
2022/03/20 09:06:17;;;;;;;15.45;13.95;;;22.60;38.40;;;;;;969322;146;27334;-76
2022/03/20 09:08:43;;;;;;;14.75;13.35;;;22.70;38.30;;;;;;968499;146;27272;-76
2022/03/20 09:11:10;;;;;;;14.87;13.48;;;22.80;38.00;;;;;;969118;146;27863;-76
2022/03/20 09:13:37;;;;;;;14.47;12.95;;;22.90;38.30;;;;;;970634;146;27302;-76
2022/03/20 09:19:00;;;;;;;15.58;13.98;;;23.10;37.20;;;;;;967884;146;27448;-76
2022/03/20 09:21:33;;;;;;;14.10;12.70;;;23.20;37.20;;;;;;969444;146;27316;-77
2022/03/20 09:24:00;;;;;;;15.05;13.65;;;23.30;37.00;;;;;;968206;146;27887;-77
2022/03/20 09:26:26;;;;;;;14.80;13.30;;;23.30;37.00;;;;;;968719;146;27366;-76
2022/03/20 09:28:52;;;;;;;15.80;14.30;;;23.30;37.00;;;;;;968545;146;27410;-76
2022/03/20 09:31:19;;;;;;;16.57;14.98;;;23.30;36.60;;;;;;969100;146;27318;-77
2022/03/20 09:33:46;;;;;;;14.28;12.90;;;23.30;36.30;;;;;;967145;146;27259;-76
2022/03/20 09:36:12;;;;;;;16.35;14.75;;;23.30;36.30;;;;;;969307;146;27338;-76
2022/03/20 09:38:39;;;;;;;15.32;13.45;;;23.20;36.20;;;;;;969536;146;27418;-76
2022/03/20 09:41:08;;;;;;;15.83;14.33;;;23.10;36.00;;;;;;968453;146;27323;-76
2022/03/20 09:43:32;;;;;;;15.60;14.00;;;23.10;35.60;;;;;;968502;146;27247;-76
2022/03/20 09:45:58;;;;;;;14.65;13.22;;;22.90;35.10;;;;;;968361;146;27762;-76
2022/03/20 09:48:25;;;;;;;15.10;13.62;;;22.80;35.10;;;;;;968653;146;27315;-76
2022/03/20 09:50:52;;;;;;;14.85;13.35;;;22.50;35.50;;;;;;969760;146;27340;-76
2022/03/20 09:53:19;;;;;;;15.05;13.55;;;22.30;35.90;;;;;;968993;146;27359;-76
2022/03/20 09:55:45;;;;;;;15.45;13.88;;;22.20;36.20;;;;;;966544;146;27343;-76
2022/03/20 09:58:11;;;;;;;14.95;13.53;;;22.10;36.10;;;;;;966959;146;27275;-77
2022/03/20 10:00:39;;;;;;;14.85;13.35;;;22.00;36.30;;;;;;968896;146;27280;-76
2022/03/20 10:03:14;;;;;;;15.63;14.10;;;21.90;36.00;;;;;;969279;146;27379;-76
2022/03/20 10:05:40;;;;;;;15.55;13.98;;;21.80;36.10;;;;;;966206;146;27456;-76
2022/03/20 10:08:20;;;;;;;14.65;13.28;;;21.70;36.30;;;;;;968695;146;28486;-76
2022/03/20 10:10:47;;;;;;;16.35;14.65;;;21.50;36.20;;;;;;968114;146;27312;-76
2022/03/20 10:13:11;;;;;;;16.77;15.08;;;21.30;35.90;;;;;;968396;146;27269;-76
2022/03/20 10:15:41;;;;;;;15.05;13.53;;;21.10;35.90;;;;;;968282;146;27326;-76
2022/03/20 10:18:19;;;;;;;16.12;14.30;;;20.90;36.00;;;;;;968196;146;27322;-76
2022/03/20 10:20:44;;;;;;;14.78;13.35;;;20.60;36.20;;;;;;968561;146;27289;-76
2022/03/20 10:23:41;;;;;;;14.58;13.03;;;20.30;36.70;;;;;;970370;146;27359;-76
2022/03/20 10:26:07;;;;;;;14.98;13.38;;;20.20;37.20;;;;;;971995;146;27285;-76
2022/03/20 10:28:36;;;;;;;15.98;14.30;;;20.00;37.40;;;;;;969674;146;27306;-76
2022/03/20 10:31:03;;;;;;;17.20;15.40;;;19.90;37.50;;;;;;968930;146;27318;-76
2022/03/20 10:33:29;;;;;;;17.45;14.18;;;19.80;36.50;;;;;;968416;146;27341;-76
2022/03/20 10:36:14;;;;;;;15.23;13.72;;;19.70;37.20;;;;;;969621;146;27275;-76
2022/03/20 10:38:41;;;;;;;17.27;14.70;;;19.60;37.40;;;;;;970306;146;27350;-77
2022/03/20 10:41:28;;;;;;;16.65;14.95;;;19.40;37.20;;;;;;968732;146;27430;-77
2022/03/20 10:43:54;;;;;;;15.80;13.75;;;19.20;37.40;;;;;;970017;146;27297;-77
2022/03/20 10:46:21;;;;;;;16.30;14.63;;;19.00;37.80;;;;;;968723;146;27335;-77
2022/03/20 10:48:48;;;;;;;14.50;13.03;;;18.80;37.90;;;;;;968649;146;27828;-77
2022/03/20 10:51:14;;;;;;;15.58;14.05;;;18.70;38.10;;;;;;967050;146;27634;-77
2022/03/20 10:53:57;;;;;;;15.05;13.32;;;18.50;38.30;;;;;;966414;146;27802;-77
2022/03/20 10:56:22;;;;;;;15.50;13.88;;;18.40;38.60;;;;;;968502;146;27313;-76
2022/03/20 10:58:49;;;;;;;15.65;14.03;;;18.20;38.80;;;;;;969469;146;27287;-76
2022/03/20 11:01:17;;;;;;;15.70;14.07;;;18.20;39.10;;;;;;969330;146;27304;-76
2022/03/20 11:03:42;;;;;;;14.73;13.25;;;18.10;39.10;;;;;;967939;144;27259;-76
2022/03/20 11:06:09;;;;;;;13.28;11.88;;;18.10;39.30;;;;;;968181;146;27366;-76
2022/03/20 11:08:37;;;;;;;16.27;14.55;;;18.00;39.40;;;;;;969104;146;27358;-77
2022/03/20 11:11:02;;;;;;;16.42;14.45;;;18.00;39.50;;;;;;967645;146;27291;-76
2022/03/20 11:13:29;;;;;;;15.20;13.00;;;17.90;39.60;;;;;;969082;146;27237;-76
2022/03/20 11:15:56;;;;;;;16.05;13.85;;;17.90;39.80;;;;;;967369;146;27409;-76
2022/03/20 11:18:22;;;;;;;15.40;13.28;;;17.90;39.90;;;;;;968601;146;27286;-76
2022/03/20 11:20:48;;;;;;;13.72;12.33;;;17.90;40.00;;;;;;968746;146;27318;-76
2022/03/20 11:23:15;;;;;;;14.75;13.13;;;17.90;40.30;;;;;;967321;146;28954;-76
2022/03/20 11:25:42;;;;;;;14.85;13.28;;;17.90;40.30;;;;;;969596;146;27344;-76
2022/03/20 11:28:08;;;;;;;17.30;14.23;;;17.90;40.20;;;;;;974277;146;27322;-76
2022/03/20 11:30:36;;;;;;;16.32;14.63;;;18.00;40.30;;;;;;972642;145;27339;-77
2022/03/20 11:33:01;;;;;;;16.60;14.90;;;18.00;40.10;;;;;;972569;145;27335;-76
2022/03/20 11:35:30;;;;;;;15.63;14.05;;;18.10;40.00;;;;;;974106;146;27385;-76
2022/03/20 11:37:58;;;;;;;15.20;13.60;;;18.00;39.90;;;;;;972694;145;27702;-76
2022/03/20 11:40:24;;;;;;;14.85;13.25;;;18.00;40.00;;;;;;973614;146;27243;-76
2022/03/20 11:42:48;;;;;;;17.57;14.05;;;18.00;40.10;;;;;;972168;146;27253;-76
2022/03/20 11:45:20;;;;;;;14.68;13.18;;;18.00;40.10;;;;;;971809;145;27307;-77
2022/03/20 11:47:47;;;;;;;16.48;14.70;;;18.00;40.00;;;;;;974168;145;27460;-76
2022/03/20 11:50:22;;;;;;;15.23;13.62;;;18.00;40.00;;;;;;974089;146;27286;-76
2022/03/20 11:52:55;;;;;;;16.50;13.45;;;18.00;40.00;;;;;;973576;146;27378;-76
2022/03/20 11:55:42;;;;;;;15.30;13.70;;;18.00;40.00;;;;;;971824;145;27321;-76
2022/03/20 11:58:21;;;;;;;14.45;12.95;;;18.00;40.00;;;;;;974321;146;27338;-76
2022/03/20 12:00:45;;;;;;;15.32;13.60;;;18.10;40.30;;;;;;975759;145;27419;-76
2022/03/20 12:03:11;;;;;;;15.35;13.05;;;18.10;40.60;;;;;;973644;145;27262;-76
2022/03/20 12:06:08;;;;;;;15.75;14.10;;;18.10;40.50;;;;;;971482;145;27254;-76
2022/03/20 12:09:09;;;;;;;14.87;13.32;;;18.20;40.50;;;;;;974257;145;28221;-76
2022/03/20 12:12:05;;;;;;;15.20;13.60;;;18.30;40.60;;;;;;973129;145;27381;-76
2022/03/20 12:14:32;;;;;;;16.23;14.05;;;18.30;40.40;;;;;;973844;145;27401;-76
2022/03/20 12:17:01;;;;;;;15.65;12.45;;;18.40;40.50;;;;;;973669;146;27713;-75
2022/03/20 12:19:49;;;;;;;16.70;13.48;;;18.40;40.50;;;;;;972105;145;27327;-75
2022/03/20 12:22:18;;;;;;;13.90;12.25;;;18.50;40.60;;;;;;974393;146;27266;-76
2022/03/20 12:24:54;;;;;;;14.43;13.00;;;18.50;40.60;;;;;;972913;146;27238;-77
2022/03/20 12:27:22;;;;;;;16.57;14.05;;;18.60;40.00;;;;;;973000;146;27397;-76
2022/03/20 12:29:47;;;;;;;14.23;12.07;;;18.70;40.60;;;;;;973524;145;27321;-76
2022/03/20 12:32:14;;;;;;;14.05;12.60;;;18.80;40.60;;;;;;975543;145;27270;-75
2022/03/20 12:34:40;;;;;;;13.93;11.38;;;18.90;40.70;;;;;;973687;145;27250;-75
2022/03/20 12:37:28;;;;;;;13.25;11.95;;;19.00;40.80;;;;;;973707;146;27270;-76
2022/03/20 12:39:57;;;;;;;12.33;10.98;;;19.10;40.80;;;;;;974692;145;27265;-76
2022/03/20 12:42:24;;;;;;;13.00;11.68;;;19.20;40.80;;;;;;973754;145;28657;-76
2022/03/20 12:44:50;;;;;;;13.40;12.00;;;19.30;40.70;;;;;;975136;146;27276;-76
2022/03/20 12:47:20;;;;;;;12.20;10.93;;;19.40;40.60;;;;;;972927;145;27355;-76
2022/03/20 12:49:46;;;;;;;11.18;9.80;;;19.40;41.00;;;;;;973503;145;27311;-76
2022/03/20 12:52:13;;;;;;;10.90;9.80;;;19.40;40.60;;;;;;974488;145;28391;-76
2022/03/20 12:54:39;;;;;;;10.43;9.33;;;19.40;40.70;;;;;;976395;145;27269;-76
2022/03/20 12:57:06;;;;;;;11.05;8.90;;;19.40;40.70;;;;;;974565;145;27339;-76
2022/03/20 12:59:32;;;;;;;10.82;9.73;;;19.40;40.80;;;;;;972140;145;27339;-75
2022/03/20 13:02:06;;;;;;;9.60;8.63;;;19.40;40.80;;;;;;972800;146;27306;-76
2022/03/20 13:04:32;;;;;;;9.63;8.50;;;19.40;40.90;;;;;;974395;146;27377;-76
2022/03/20 13:06:59;;;;;;;11.03;8.65;;;19.30;41.00;;;;;;973033;145;27258;-76